createdAt,value
2022-11-16T00:00:11.440Z,6.92
2022-11-16T00:03:03.125Z,6.91
2022-11-16T00:05:33.993Z,6.92
2022-11-16T00:08:03.406Z,6.92
2022-11-16T00:10:32.873Z,6.92
2022-11-16T00:13:02.039Z,6.93
2022-11-16T00:15:31.327Z,6.93
2022-11-16T00:18:00.296Z,6.92
2022-11-16T00:20:29.611Z,6.92
2022-11-16T00:23:00.033Z,6.93
2022-11-16T00:25:29.582Z,6.93
2022-11-16T00:27:58.615Z,6.94
2022-11-16T00:30:28.358Z,6.92
2022-11-16T00:33:01.248Z,6.94
2022-11-16T00:35:30.603Z,6.93
2022-11-16T00:38:01.028Z,6.93
2022-11-16T00:40:30.300Z,6.93
2022-11-16T00:42:59.279Z,6.93
2022-11-16T00:45:28.693Z,6.92
2022-11-16T00:48:00.409Z,6.91
2022-11-16T00:50:30.990Z,6.91
2022-11-16T00:53:01.579Z,6.90
2022-11-16T00:55:31.836Z,6.88
2022-11-16T00:58:01.357Z,6.88
2022-11-16T01:00:31.571Z,6.87
2022-11-16T01:03:00.674Z,6.87
2022-11-16T01:05:30.171Z,6.86
2022-11-16T01:08:01.182Z,6.86
2022-11-16T01:10:31.100Z,6.84
2022-11-16T01:12:59.281Z,6.84
2022-11-16T01:15:29.729Z,6.84
2022-11-16T01:17:59.366Z,6.83
2022-11-16T01:20:30.619Z,6.81
2022-11-16T01:23:01.114Z,6.81
2022-11-16T01:25:30.563Z,6.81
2022-11-16T01:27:59.572Z,6.80
2022-11-16T01:30:41.150Z,6.80
2022-11-16T01:33:11.991Z,6.79
2022-11-16T01:35:45.226Z,6.79
2022-11-16T01:38:19.249Z,6.79
2022-11-16T01:40:48.754Z,6.79
2022-11-16T01:43:19.578Z,6.80
2022-11-16T01:45:50.117Z,6.80
2022-11-16T01:48:23.325Z,6.81
2022-11-16T01:50:55.543Z,6.82
2022-11-16T01:53:26.818Z,6.81
2022-11-16T01:55:58.957Z,6.82
2022-11-16T01:58:48.663Z,6.83
2022-11-16T02:01:27.749Z,6.83
2022-11-16T02:04:00.434Z,6.84
2022-11-16T02:06:48.323Z,6.83
2022-11-16T02:09:55.695Z,6.84
2022-11-16T02:12:47.730Z,6.84
2022-11-16T02:15:27.390Z,6.83
2022-11-16T02:18:32.322Z,6.83
2022-11-16T02:21:18.186Z,6.85
2022-11-16T02:24:17.055Z,6.85
2022-11-16T02:27:11.676Z,6.84
2022-11-16T02:29:46.080Z,6.84
2022-11-16T02:32:20.002Z,6.84
2022-11-16T02:34:53.857Z,6.84
2022-11-16T02:37:26.006Z,6.84
2022-11-16T02:39:59.842Z,6.84
2022-11-16T02:42:34.088Z,6.83
2022-11-16T02:45:10.028Z,6.82
2022-11-16T02:47:41.853Z,6.82
2022-11-16T02:50:16.176Z,6.81
2022-11-16T02:52:45.281Z,6.79
2022-11-16T02:55:14.861Z,6.79
2022-11-16T02:57:52.777Z,6.78
2022-11-16T03:00:26.092Z,6.76
2022-11-16T03:03:17.352Z,6.75
2022-11-16T03:05:50.618Z,6.74
2022-11-16T03:08:25.211Z,6.73
2022-11-16T03:11:17.508Z,6.70
2022-11-16T03:13:48.240Z,6.68
2022-11-16T03:16:23.608Z,6.67
2022-11-16T03:18:56.462Z,6.65
2022-11-16T03:21:34.954Z,6.62
2022-11-16T03:24:04.855Z,6.61
2022-11-16T03:26:39.599Z,6.59
2022-11-16T03:29:15.543Z,6.56
2022-11-16T03:31:51.819Z,6.56
2022-11-16T03:34:26.768Z,6.54
2022-11-16T03:36:57.820Z,6.53
2022-11-16T03:39:31.417Z,6.52
2022-11-16T03:42:03.824Z,6.50
2022-11-16T03:44:32.977Z,6.48
2022-11-16T03:47:04.137Z,6.45
2022-11-16T03:49:33.195Z,6.44
2022-11-16T03:52:02.607Z,6.43
2022-11-16T03:54:33.518Z,6.44
2022-11-16T03:57:03.568Z,6.43
2022-11-16T03:59:32.886Z,6.42
2022-11-16T04:02:03.776Z,6.41
2022-11-16T04:04:50.948Z,6.40
2022-11-16T04:07:37.696Z,6.39
2022-11-16T04:10:25.313Z,6.39
2022-11-16T04:13:12.211Z,6.37
2022-11-16T04:15:59.086Z,6.37
2022-11-16T04:18:46.966Z,6.36
2022-11-16T04:21:39.243Z,6.35
2022-11-16T04:24:15.132Z,6.34
2022-11-16T04:27:05.269Z,6.32
2022-11-16T04:29:35.700Z,6.33
2022-11-16T04:32:23.236Z,6.33
2022-11-16T04:35:11.640Z,6.32
2022-11-16T04:37:49.691Z,6.32
2022-11-16T04:40:26.396Z,6.31
2022-11-16T04:42:56.418Z,6.31
2022-11-16T04:45:44.270Z,6.32
2022-11-16T04:48:15.553Z,6.32
2022-11-16T04:50:46.468Z,6.32
2022-11-16T04:53:16.497Z,6.32
2022-11-16T04:55:51.221Z,6.32
2022-11-16T04:58:22.669Z,6.29
2022-11-16T05:00:52.395Z,6.29
2022-11-16T05:03:23.423Z,6.27
2022-11-16T05:05:54.264Z,6.26
2022-11-16T05:08:23.331Z,6.23
2022-11-16T05:10:54.740Z,6.21
2022-11-16T05:13:23.928Z,6.20
2022-11-16T05:15:55.004Z,6.18
2022-11-16T05:18:24.946Z,6.16
2022-11-16T05:21:01.231Z,6.15
2022-11-16T05:23:52.547Z,6.14
2022-11-16T05:26:24.628Z,6.13
2022-11-16T05:28:55.553Z,6.11
2022-11-16T05:31:25.068Z,6.09
2022-11-16T05:33:54.636Z,6.08
2022-11-16T05:36:26.146Z,6.07
2022-11-16T05:38:56.410Z,6.06
2022-11-16T05:41:29.976Z,6.03
2022-11-16T05:44:00.524Z,6.01
2022-11-16T05:46:29.970Z,6.00
2022-11-16T05:49:01.795Z,5.98
2022-11-16T05:51:32.684Z,5.97
2022-11-16T05:54:01.853Z,5.97
2022-11-16T05:56:31.642Z,5.94
2022-11-16T05:59:00.857Z,5.92
2022-11-16T06:01:30.657Z,5.89
2022-11-16T06:04:01.662Z,5.88
2022-11-16T06:06:33.838Z,5.85
2022-11-16T06:09:03.102Z,5.84
2022-11-16T06:11:36.241Z,5.83
2022-11-16T06:14:07.015Z,5.82
2022-11-16T06:16:37.886Z,5.81
2022-11-16T06:19:09.943Z,5.80
2022-11-16T06:21:40.805Z,5.78
2022-11-16T06:24:15.664Z,5.78
2022-11-16T06:26:47.435Z,5.77
2022-11-16T06:29:16.523Z,5.77
2022-11-16T06:31:45.734Z,5.76
2022-11-16T06:34:15.359Z,5.75
2022-11-16T06:36:46.421Z,5.74
2022-11-16T06:39:16.231Z,5.73
2022-11-16T06:41:45.596Z,5.71
2022-11-16T06:44:15.748Z,5.70
2022-11-16T06:46:54.798Z,5.68
2022-11-16T06:49:25.237Z,5.67
2022-11-16T06:51:58.565Z,5.66
2022-11-16T06:54:28.364Z,5.66
2022-11-16T06:56:57.693Z,5.65
2022-11-16T06:59:26.635Z,5.64
2022-11-16T07:01:55.977Z,5.61
2022-11-16T07:04:25.288Z,5.60
2022-11-16T07:06:59.804Z,5.58
2022-11-16T07:09:29.350Z,5.57
2022-11-16T07:11:58.989Z,5.55
2022-11-16T07:14:29.824Z,5.55
2022-11-16T07:17:01.077Z,5.55
2022-11-16T07:19:32.241Z,5.52
2022-11-16T07:22:03.528Z,5.51
2022-11-16T07:24:32.985Z,5.50
2022-11-16T07:27:02.347Z,5.49
2022-11-16T07:29:36.841Z,5.47
2022-11-16T07:32:25.335Z,5.47
2022-11-16T07:35:14.360Z,5.45
2022-11-16T07:37:46.002Z,5.45
2022-11-16T07:40:17.339Z,5.44
2022-11-16T07:42:48.375Z,5.44
2022-11-16T07:45:33.102Z,5.43
2022-11-16T07:48:08.619Z,5.44
2022-11-16T07:50:55.986Z,5.43
2022-11-16T07:53:27.205Z,5.41
2022-11-16T07:55:56.416Z,5.40
2022-11-16T07:58:28.762Z,5.39
2022-11-16T08:01:05.883Z,5.38
2022-11-16T08:03:37.126Z,5.37
2022-11-16T08:06:12.380Z,5.37
2022-11-16T08:08:43.373Z,5.37
2022-11-16T08:11:13.944Z,5.37
2022-11-16T08:13:45.685Z,5.36
2022-11-16T08:16:17.948Z,5.36
2022-11-16T08:18:48.865Z,5.36
2022-11-16T08:21:19.892Z,5.35
2022-11-16T08:23:55.348Z,5.36
2022-11-16T08:26:28.322Z,5.35
2022-11-16T08:29:03.947Z,5.35
2022-11-16T08:31:36.891Z,5.34
2022-11-16T08:34:25.018Z,5.34
2022-11-16T08:39:04.891Z,5.30
